Time;durP1;ratioP1;P1;durP2;ratioP2;P2;SDS_P1;SDS_P2;PMS_P1;PMS_P2;Temp;Humidity;BMP_temperature;BMP_pressure;BME280_temperature;BME280_humidity;BME280_pressure;Samples;Min_cycle;Max_cycle;Signal;HPM_P1;HPM_P2
2023/01/30 00:00:00;;;;;;;1.20;1.17;;;;;;;;;;5083289;28;20270;-68
2023/01/30 00:02:27;;;;;;;0.77;0.77;;;;;;;;;;5071720;28;20453;-68
2023/01/30 00:04:53;;;;;;;0.30;0.30;;;;;;;;;;5083527;28;20399;-68
2023/01/30 00:07:19;;;;;;;3.10;1.27;;;;;;;;;;5071859;28;20550;-69
2023/01/30 00:09:46;;;;;;;0.30;0.30;;;;;;;;;;5083635;28;20433;-68
2023/01/30 00:12:14;;;;;;;0.50;0.50;;;;;;;;;;5071672;28;20235;-68
2023/01/30 00:14:40;;;;;;;0.40;0.40;;;;;;;;;;5082974;28;20274;-69
2023/01/30 00:17:06;;;;;;;0.37;0.37;;;;;;;;;;5071794;28;20239;-68
2023/01/30 00:19:33;;;;;;;0.87;0.87;;;;;;;;;;5083534;28;20237;-69
2023/01/30 00:21:59;;;;;;;0.80;0.80;;;;;;;;;;5071800;28;20260;-68
2023/01/30 00:24:25;;;;;;;0.40;0.40;;;;;;;;;;5083292;28;20311;-68
2023/01/30 00:26:52;;;;;;;2.37;2.03;;;;;;;;;;5071763;28;20259;-68
2023/01/30 00:29:19;;;;;;;0.93;0.93;;;;;;;;;;5083087;28;20204;-67
2023/01/30 00:31:46;;;;;;;0.30;0.30;;;;;;;;;;5071574;28;20235;-67
2023/01/30 00:34:12;;;;;;;1.10;1.10;;;;;;;;;;5083138;28;20234;-68
2023/01/30 00:36:39;;;;;;;0.37;0.37;;;;;;;;;;5071698;28;20239;-68
2023/01/30 00:39:05;;;;;;;0.50;0.50;;;;;;;;;;5082604;28;20527;-68
2023/01/30 00:47:07;;;;;;;1.60;1.50;;;;;;;;;;5071667;28;20262;-68
2023/01/30 00:49:34;;;;;;;0.30;0.30;;;;;;;;;;5083240;28;20210;-68
2023/01/30 00:52:00;;;;;;;0.63;0.63;;;;;;;;;;5071420;28;20445;-68
2023/01/30 00:54:26;;;;;;;0.30;0.30;;;;;;;;;;5083144;28;20544;-68
2023/01/30 00:56:53;;;;;;;0.40;0.40;;;;;;;;;;5073606;28;20265;-68
2023/01/30 00:59:19;;;;;;;0.30;0.30;;;;;;;;;;5086599;28;20243;-68
2023/01/30 01:01:45;;;;;;;1.60;1.30;;;;;;;;;;5075085;28;20308;-68
2023/01/30 01:04:13;;;;;;;0.43;0.43;;;;;;;;;;5086453;28;20237;-68
2023/01/30 01:06:39;;;;;;;1.20;1.13;;;;;;;;;;5074931;28;20306;-68
2023/01/30 01:09:06;;;;;;;0.83;0.83;;;;;;;;;;5086282;28;20274;-68
2023/01/30 01:11:33;;;;;;;1.40;1.30;;;;;;;;;;5074941;28;20242;-68
2023/01/30 01:14:00;;;;;;;0.60;0.60;;;;;;;;;;5086044;28;20277;-69
2023/01/30 01:16:27;;;;;;;0.40;0.40;;;;;;;;;;5074880;28;20258;-68
2023/01/30 01:18:53;;;;;;;1.80;1.60;;;;;;;;;;5085749;28;20205;-68
2023/01/30 01:21:22;;;;;;;0.73;0.73;;;;;;;;;;5074975;28;20326;-68
2023/01/30 01:23:49;;;;;;;0.40;0.40;;;;;;;;;;5085768;28;20465;-68
2023/01/30 01:26:15;;;;;;;1.37;1.27;;;;;;;;;;5074950;28;20417;-68
2023/01/30 01:28:42;;;;;;;0.40;0.40;;;;;;;;;;5085517;28;20203;-68
2023/01/30 01:31:09;;;;;;;0.63;0.63;;;;;;;;;;5074564;28;20251;-68
2023/01/30 01:33:35;;;;;;;0.40;0.40;;;;;;;;;;5085485;28;20235;-68
2023/01/30 01:36:02;;;;;;;0.40;0.40;;;;;;;;;;5074920;28;20262;-68
2023/01/30 01:38:29;;;;;;;0.37;0.37;;;;;;;;;;5085026;28;20211;-68
2023/01/30 01:41:02;;;;;;;1.37;1.37;;;;;;;;;;5074876;28;20243;-68
2023/01/30 01:43:29;;;;;;;0.30;0.30;;;;;;;;;;5085256;28;20546;-68
2023/01/30 01:45:58;;;;;;;3.10;1.33;;;;;;;;;;5074890;28;20263;-68
2023/01/30 01:48:27;;;;;;;0.73;0.73;;;;;;;;;;5084995;28;20541;-67
2023/01/30 01:50:55;;;;;;;0.40;0.40;;;;;;;;;;5074580;28;20238;-67
2023/01/30 01:53:25;;;;;;;0.80;0.80;;;;;;;;;;5084895;28;20542;-67
2023/01/30 01:55:55;;;;;;;1.37;1.37;;;;;;;;;;5074603;28;20247;-68
2023/01/30 01:58:23;;;;;;;0.40;0.40;;;;;;;;;;5084643;28;20217;-68
2023/01/30 02:00:49;;;;;;;3.30;3.00;;;;;;;;;;5074500;28;20427;-67
2023/01/30 02:03:19;;;;;;;2.20;0.87;;;;;;;;;;5084494;28;20301;-68
2023/01/30 02:05:47;;;;;;;0.50;0.50;;;;;;;;;;5074440;28;20309;-69
2023/01/30 02:08:14;;;;;;;0.53;0.53;;;;;;;;;;5084348;28;20398;-68
2023/01/30 02:10:44;;;;;;;0.40;0.40;;;;;;;;;;5074213;28;20306;-68
2023/01/30 02:13:11;;;;;;;0.37;0.37;;;;;;;;;;5084161;28;20230;-68
2023/01/30 02:15:38;;;;;;;0.80;0.80;;;;;;;;;;5074135;28;20234;-69
2023/01/30 02:18:04;;;;;;;0.40;0.40;;;;;;;;;;5083929;28;20205;-68
2023/01/30 02:20:36;;;;;;;0.50;0.50;;;;;;;;;;5074189;28;20253;-69
2023/01/30 02:23:24;;;;;;;1.27;0.80;;;;;;;;;;5084058;28;20243;-68
2023/01/30 02:26:23;;;;;;;0.40;0.40;;;;;;;;;;5048373;28;20259;-69
2023/01/30 02:29:09;;;;;;;0.40;0.40;;;;;;;;;;5084462;28;20266;-68
2023/01/30 02:31:40;;;;;;;0.30;0.30;;;;;;;;;;5073321;28;20299;-69
2023/01/30 02:34:15;;;;;;;0.30;0.30;;;;;;;;;;5084548;28;20245;-69
2023/01/30 02:36:48;;;;;;;0.30;0.30;;;;;;;;;;5073048;28;20294;-69
2023/01/30 02:39:20;;;;;;;0.40;0.40;;;;;;;;;;5084568;28;20232;-69
2023/01/30 02:41:50;;;;;;;0.47;0.47;;;;;;;;;;5073027;28;20311;-69
2023/01/30 02:44:17;;;;;;;0.30;0.30;;;;;;;;;;5084414;28;20203;-69
2023/01/30 02:46:50;;;;;;;2.83;1.70;;;;;;;;;;5073089;28;20313;-68
2023/01/30 02:49:18;;;;;;;2.17;1.70;;;;;;;;;;5084430;28;20274;-69
2023/01/30 02:51:46;;;;;;;1.33;1.33;;;;;;;;;;5072832;28;20450;-68
2023/01/30 02:54:13;;;;;;;0.30;0.30;;;;;;;;;;5083789;28;20275;-68
2023/01/30 02:56:46;;;;;;;1.63;1.63;;;;;;;;;;5072621;28;20245;-68
2023/01/30 02:59:15;;;;;;;0.60;0.60;;;;;;;;;;5084280;28;20203;-68
2023/01/30 03:01:53;;;;;;;1.90;1.60;;;;;;;;;;5072762;28;20255;-69
2023/01/30 03:04:30;;;;;;;0.83;0.83;;;;;;;;;;5084210;28;20530;-68
2023/01/30 03:07:07;;;;;;;3.00;1.23;;;;;;;;;;5072605;28;20558;-69
2023/01/30 03:09:42;;;;;;;1.53;1.53;;;;;;;;;;5084225;28;20542;-68
2023/01/30 03:12:13;;;;;;;1.83;1.73;;;;;;;;;;5072428;28;20231;-68
2023/01/30 03:14:44;;;;;;;0.30;0.30;;;;;;;;;;5084168;28;20279;-69
2023/01/30 03:17:13;;;;;;;1.20;0.73;;;;;;;;;;5072364;28;20598;-68
2023/01/30 03:19:39;;;;;;;1.17;1.10;;;;;;;;;;5083053;28;20274;-68
2023/01/30 03:22:06;;;;;;;0.50;0.50;;;;;;;;;;5072364;28;20571;-69
2023/01/30 03:24:32;;;;;;;0.60;0.60;;;;;;;;;;5084027;28;20383;-69
2023/01/30 03:27:02;;;;;;;0.40;0.40;;;;;;;;;;5072231;28;20239;-68
2023/01/30 03:29:28;;;;;;;1.77;1.70;;;;;;;;;;5083807;28;20215;-69
2023/01/30 03:31:54;;;;;;;0.40;0.40;;;;;;;;;;5071936;28;20236;-69
2023/01/30 03:34:22;;;;;;;1.00;1.00;;;;;;;;;;5083824;28;20230;-68
2023/01/30 03:36:49;;;;;;;0.50;0.50;;;;;;;;;;5072292;28;20586;-68
2023/01/30 03:39:15;;;;;;;3.30;2.00;;;;;;;;;;5083648;28;20242;-68
2023/01/30 03:41:42;;;;;;;0.30;0.30;;;;;;;;;;5072172;28;20261;-68
2023/01/30 03:44:08;;;;;;;0.30;0.30;;;;;;;;;;5083056;28;20271;-68
2023/01/30 03:46:34;;;;;;;0.30;0.30;;;;;;;;;;5072241;28;20273;-68
2023/01/30 03:49:01;;;;;;;0.40;0.40;;;;;;;;;;5083262;28;20199;-69
2023/01/30 03:51:28;;;;;;;0.30;0.30;;;;;;;;;;5072239;28;20251;-69
2023/01/30 03:53:55;;;;;;;1.17;0.83;;;;;;;;;;5083255;28;20299;-68
2023/01/30 03:56:21;;;;;;;1.80;1.67;;;;;;;;;;5072172;28;20245;-68
2023/01/30 03:58:47;;;;;;;0.73;0.73;;;;;;;;;;5083148;28;20236;-67
2023/01/30 04:01:14;;;;;;;0.40;0.40;;;;;;;;;;5072323;28;20251;-68
2023/01/30 04:03:40;;;;;;;0.40;0.40;;;;;;;;;;5083068;28;20483;-68
2023/01/30 04:06:07;;;;;;;0.90;0.90;;;;;;;;;;5072409;28;20490;-67
2023/01/30 04:08:34;;;;;;;0.63;0.63;;;;;;;;;;5082782;28;20273;-67
2023/01/30 04:11:01;;;;;;;2.50;2.30;;;;;;;;;;5072502;28;20460;-68
2023/01/30 04:13:27;;;;;;;0.47;0.47;;;;;;;;;;5082755;28;20482;-68
2023/01/30 04:15:53;;;;;;;0.30;0.30;;;;;;;;;;5072562;28;20442;-68
2023/01/30 04:18:20;;;;;;;0.63;0.63;;;;;;;;;;5082760;28;20233;-68
2023/01/30 04:20:46;;;;;;;1.40;1.30;;;;;;;;;;5072516;28;20237;-68
2023/01/30 04:23:12;;;;;;;0.57;0.57;;;;;;;;;;5082289;28;20268;-68
2023/01/30 04:25:40;;;;;;;0.63;0.63;;;;;;;;;;5072382;28;20590;-68
2023/01/30 04:28:06;;;;;;;0.30;0.30;;;;;;;;;;5082482;28;20455;-68
2023/01/30 04:30:33;;;;;;;0.30;0.30;;;;;;;;;;5072420;28;20248;-68
2023/01/30 04:32:59;;;;;;;0.80;0.80;;;;;;;;;;5085939;28;20226;-67
2023/01/30 04:35:26;;;;;;;1.17;1.17;;;;;;;;;;5076146;28;20205;-67
2023/01/30 04:37:52;;;;;;;0.40;0.40;;;;;;;;;;5086059;28;20204;-68
2023/01/30 04:40:18;;;;;;;0.30;0.30;;;;;;;;;;5076356;28;20206;-67
2023/01/30 04:42:46;;;;;;;0.30;0.30;;;;;;;;;;5085555;28;20219;-68
2023/01/30 04:45:12;;;;;;;0.40;0.40;;;;;;;;;;5076450;28;20259;-67
2023/01/30 04:47:39;;;;;;;0.30;0.30;;;;;;;;;;5085296;28;20204;-67
2023/01/30 04:50:06;;;;;;;3.30;2.00;;;;;;;;;;5086372;28;20212;-68
2023/01/30 04:52:32;;;;;;;0.30;0.30;;;;;;;;;;5074863;28;20300;-68
2023/01/30 04:54:58;;;;;;;1.93;1.77;;;;;;;;;;5086324;28;20239;-68
2023/01/30 04:57:25;;;;;;;2.13;1.97;;;;;;;;;;5074691;28;20272;-68
2023/01/30 04:59:53;;;;;;;0.70;0.70;;;;;;;;;;5086654;28;20512;-67
2023/01/30 05:02:19;;;;;;;0.30;0.30;;;;;;;;;;5074611;28;20253;-67
2023/01/30 05:04:48;;;;;;;0.80;0.80;;;;;;;;;;5086500;28;20245;-67
2023/01/30 05:07:15;;;;;;;0.63;0.63;;;;;;;;;;5074573;28;20260;-68
2023/01/30 05:09:41;;;;;;;1.90;1.70;;;;;;;;;;5086540;28;20206;-67
2023/01/30 05:12:07;;;;;;;1.67;1.40;;;;;;;;;;5074552;28;20256;-69
2023/01/30 05:14:34;;;;;;;1.67;1.57;;;;;;;;;;5086415;28;20237;-67
2023/01/30 05:17:02;;;;;;;2.47;2.10;;;;;;;;;;5074514;28;20241;-67
2023/01/30 05:19:28;;;;;;;0.70;0.70;;;;;;;;;;5086284;28;20434;-68
2023/01/30 05:21:55;;;;;;;0.30;0.30;;;;;;;;;;5074630;28;20241;-68
2023/01/30 05:24:21;;;;;;;0.67;0.67;;;;;;;;;;5086142;28;20228;-67
2023/01/30 05:26:47;;;;;;;0.30;0.30;;;;;;;;;;5074622;28;20245;-67
2023/01/30 05:29:14;;;;;;;3.00;0.77;;;;;;;;;;5085885;28;20232;-67
2023/01/30 05:31:40;;;;;;;0.73;0.73;;;;;;;;;;5074345;28;20240;-67
2023/01/30 05:34:10;;;;;;;0.57;0.57;;;;;;;;;;5085816;28;20447;-67
2023/01/30 05:36:37;;;;;;;0.97;0.97;;;;;;;;;;5074372;28;20305;-67
2023/01/30 05:39:03;;;;;;;1.53;1.43;;;;;;;;;;5085623;28;20499;-67
2023/01/30 05:41:30;;;;;;;0.30;0.30;;;;;;;;;;5073935;28;20244;-67
2023/01/30 05:43:56;;;;;;;1.90;1.43;;;;;;;;;;5085432;28;20237;-68
2023/01/30 05:46:23;;;;;;;1.13;1.13;;;;;;;;;;5074667;28;20255;-67
2023/01/30 05:48:49;;;;;;;0.60;0.60;;;;;;;;;;5085105;28;20205;-67
2023/01/30 05:51:17;;;;;;;1.00;1.00;;;;;;;;;;5074347;28;20313;-67
2023/01/30 05:53:44;;;;;;;2.10;1.90;;;;;;;;;;5084987;28;20632;-67
2023/01/30 05:56:10;;;;;;;0.30;0.30;;;;;;;;;;5074299;28;20256;-68
2023/01/30 05:58:36;;;;;;;0.40;0.40;;;;;;;;;;5084888;28;20205;-68
2023/01/30 06:01:04;;;;;;;0.57;0.57;;;;;;;;;;5074281;28;20257;-68
2023/01/30 06:03:30;;;;;;;0.40;0.40;;;;;;;;;;5084539;28;20200;-67
2023/01/30 06:05:57;;;;;;;0.60;0.60;;;;;;;;;;5074429;28;20247;-68
2023/01/30 06:08:24;;;;;;;0.70;0.70;;;;;;;;;;5084731;28;20204;-68
2023/01/30 06:10:51;;;;;;;0.30;0.30;;;;;;;;;;5074290;28;20508;-67
2023/01/30 06:13:17;;;;;;;0.30;0.30;;;;;;;;;;5083952;28;20295;-67
2023/01/30 06:15:43;;;;;;;0.30;0.30;;;;;;;;;;5074016;28;20255;-67
2023/01/30 06:18:10;;;;;;;0.30;0.30;;;;;;;;;;5084056;28;20211;-67
2023/01/30 06:20:36;;;;;;;0.67;0.67;;;;;;;;;;5074098;28;20260;-67
2023/01/30 06:23:03;;;;;;;0.30;0.30;;;;;;;;;;5084069;28;20268;-67
2023/01/30 06:25:30;;;;;;;0.53;0.53;;;;;;;;;;5074302;28;20251;-67
2023/01/30 06:27:57;;;;;;;0.93;0.93;;;;;;;;;;5083733;28;20238;-67
2023/01/30 06:30:23;;;;;;;1.70;1.70;;;;;;;;;;5074083;28;20255;-67
2023/01/30 06:32:50;;;;;;;1.70;1.07;;;;;;;;;;5083492;28;20459;-67
2023/01/30 06:35:16;;;;;;;0.77;0.77;;;;;;;;;;5074231;28;20276;-67
2023/01/30 06:37:44;;;;;;;0.30;0.30;;;;;;;;;;5083574;28;20191;-67
2023/01/30 06:40:11;;;;;;;0.37;0.37;;;;;;;;;;5074087;28;20244;-67
2023/01/30 06:42:38;;;;;;;0.30;0.30;;;;;;;;;;5083482;28;20231;-67
2023/01/30 06:45:05;;;;;;;0.30;0.30;;;;;;;;;;5084417;28;20203;-67
2023/01/30 06:47:32;;;;;;;1.50;0.97;;;;;;;;;;5056017;28;20208;-67
2023/01/30 06:49:58;;;;;;;0.60;0.60;;;;;;;;;;5084281;28;20236;-69
2023/01/30 06:52:24;;;;;;;0.60;0.60;;;;;;;;;;5074244;28;20304;-67
2023/01/30 06:54:57;;;;;;;1.13;1.13;;;;;;;;;;5083722;28;20260;-68
2023/01/30 06:57:23;;;;;;;0.83;0.83;;;;;;;;;;5072653;28;20240;-68
2023/01/30 06:59:51;;;;;;;0.30;0.30;;;;;;;;;;5084440;28;20231;-67
2023/01/30 07:02:17;;;;;;;0.93;0.93;;;;;;;;;;5072492;28;20253;-68
2023/01/30 07:04:43;;;;;;;0.87;0.87;;;;;;;;;;5084357;28;20231;-67
2023/01/30 07:07:10;;;;;;;0.30;0.30;;;;;;;;;;5072466;28;20308;-68
2023/01/30 07:09:36;;;;;;;0.20;0.20;;;;;;;;;;5084215;28;20233;-68
2023/01/30 07:12:03;;;;;;;0.47;0.47;;;;;;;;;;5072461;28;20241;-67
2023/01/30 07:14:29;;;;;;;0.63;0.50;;;;;;;;;;5084001;28;20291;-67
2023/01/30 07:16:57;;;;;;;1.07;1.07;;;;;;;;;;5072361;28;20264;-68
2023/01/30 07:19:23;;;;;;;2.00;1.90;;;;;;;;;;5083998;28;20247;-68
2023/01/30 07:21:49;;;;;;;0.63;0.63;;;;;;;;;;5072226;28;20269;-67
2023/01/30 07:24:16;;;;;;;0.60;0.60;;;;;;;;;;5083858;28;20456;-67
2023/01/30 07:26:42;;;;;;;0.53;0.53;;;;;;;;;;5072455;28;20308;-67
2023/01/30 07:29:08;;;;;;;0.30;0.30;;;;;;;;;;5083687;28;20272;-67
2023/01/30 07:31:35;;;;;;;0.23;0.23;;;;;;;;;;5072339;28;20256;-67
2023/01/30 07:34:02;;;;;;;0.20;0.20;;;;;;;;;;5083626;28;20251;-68
2023/01/30 07:36:32;;;;;;;0.80;0.80;;;;;;;;;;5072477;28;20298;-68
2023/01/30 07:38:58;;;;;;;0.47;0.47;;;;;;;;;;5083556;28;20228;-68
2023/01/30 07:41:26;;;;;;;0.30;0.30;;;;;;;;;;5072475;28;20585;-67
2023/01/30 07:43:52;;;;;;;1.17;1.07;;;;;;;;;;5083234;28;20203;-68
2023/01/30 07:46:19;;;;;;;0.20;0.20;;;;;;;;;;5072465;28;20248;-68
2023/01/30 07:48:45;;;;;;;0.40;0.40;;;;;;;;;;5083159;28;20233;-68
2023/01/30 07:51:13;;;;;;;0.40;0.40;;;;;;;;;;5072348;28;20248;-68
2023/01/30 07:53:40;;;;;;;0.30;0.30;;;;;;;;;;5083086;28;20578;-68
2023/01/30 07:56:07;;;;;;;0.30;0.30;;;;;;;;;;5072466;28;20611;-67
2023/01/30 07:58:33;;;;;;;0.77;0.77;;;;;;;;;;5083021;28;20273;-67
2023/01/30 08:01:00;;;;;;;0.20;0.20;;;;;;;;;;5072481;28;20245;-67
2023/01/30 08:03:26;;;;;;;0.30;0.30;;;;;;;;;;5082396;28;20209;-67
2023/01/30 08:05:53;;;;;;;0.20;0.20;;;;;;;;;;5074780;28;20248;-67
2023/01/30 08:08:20;;;;;;;0.43;0.43;;;;;;;;;;5086693;28;20206;-67
2023/01/30 08:10:48;;;;;;;0.20;0.20;;;;;;;;;;5076679;28;20625;-69
2023/01/30 08:13:14;;;;;;;0.33;0.33;;;;;;;;;;5086638;28;20273;-74
2023/01/30 08:15:41;;;;;;;0.30;0.30;;;;;;;;;;5076514;28;20250;-70
2023/01/30 08:18:07;;;;;;;0.30;0.30;;;;;;;;;;5086732;28;20235;-70
2023/01/30 08:20:34;;;;;;;1.00;1.00;;;;;;;;;;5076453;28;20245;-69
2023/01/30 08:23:01;;;;;;;0.67;0.67;;;;;;;;;;5086277;28;20280;-70
2023/01/30 08:25:29;;;;;;;0.30;0.30;;;;;;;;;;5076832;28;20315;-68
2023/01/30 08:27:55;;;;;;;0.67;0.67;;;;;;;;;;5086047;28;20224;-68
2023/01/30 08:30:22;;;;;;;0.20;0.20;;;;;;;;;;5076699;28;20247;-69
2023/01/30 08:32:48;;;;;;;0.43;0.43;;;;;;;;;;5085893;28;20281;-68
2023/01/30 08:35:15;;;;;;;0.20;0.20;;;;;;;;;;5076243;28;20435;-67
2023/01/30 08:37:41;;;;;;;0.23;0.23;;;;;;;;;;5085790;28;20225;-68
2023/01/30 08:40:08;;;;;;;0.30;0.30;;;;;;;;;;5079798;28;20238;-68
2023/01/30 08:42:36;;;;;;;1.37;1.37;;;;;;;;;;5085785;28;20289;-68
2023/01/30 08:45:03;;;;;;;0.20;0.20;;;;;;;;;;5086906;28;20274;-68
2023/01/30 08:47:29;;;;;;;0.27;0.27;;;;;;;;;;5075407;28;20588;-68
2023/01/30 08:49:55;;;;;;;0.20;0.20;;;;;;;;;;5086892;28;20529;-67
2023/01/30 08:52:22;;;;;;;0.30;0.30;;;;;;;;;;5075254;28;20250;-67
2023/01/30 08:54:48;;;;;;;0.77;0.77;;;;;;;;;;5086200;28;20297;-67
2023/01/30 08:57:15;;;;;;;0.67;0.67;;;;;;;;;;5075014;28;20328;-67
2023/01/30 08:59:43;;;;;;;3.90;0.70;;;;;;;;;;5086920;28;20530;-68
2023/01/30 09:02:09;;;;;;;0.50;0.50;;;;;;;;;;5075056;28;20254;-67
2023/01/30 09:04:36;;;;;;;0.40;0.40;;;;;;;;;;5086718;28;20266;-67
2023/01/30 09:07:02;;;;;;;0.20;0.20;;;;;;;;;;5074927;28;20305;-67
2023/01/30 09:09:29;;;;;;;0.83;0.83;;;;;;;;;;5086678;28;20241;-67
2023/01/30 09:11:55;;;;;;;0.20;0.20;;;;;;;;;;5074907;28;20288;-67
2023/01/30 09:14:21;;;;;;;0.20;0.20;;;;;;;;;;5086246;28;20237;-66
2023/01/30 09:16:54;;;;;;;0.30;0.30;;;;;;;;;;5074062;28;20241;-67
2023/01/30 09:19:20;;;;;;;0.20;0.20;;;;;;;;;;5086398;28;20209;-67
2023/01/30 09:21:48;;;;;;;0.20;0.20;;;;;;;;;;5074837;28;20257;-68
2023/01/30 09:24:14;;;;;;;0.50;0.50;;;;;;;;;;5086089;28;20329;-67
2023/01/30 09:26:43;;;;;;;0.20;0.20;;;;;;;;;;5074870;28;20252;-67
2023/01/30 09:29:10;;;;;;;0.20;0.20;;;;;;;;;;5086006;28;20230;-67
2023/01/30 09:31:36;;;;;;;0.30;0.30;;;;;;;;;;5074479;28;20238;-67
2023/01/30 09:34:04;;;;;;;0.20;0.20;;;;;;;;;;5085716;28;20223;-68
2023/01/30 09:36:30;;;;;;;0.50;0.50;;;;;;;;;;5074737;28;20261;-67
2023/01/30 09:38:57;;;;;;;0.20;0.20;;;;;;;;;;5085774;28;20273;-67
2023/01/30 09:41:42;;;;;;;0.20;0.20;;;;;;;;;;5074770;28;20268;-66
2023/01/30 09:44:18;;;;;;;0.20;0.20;;;;;;;;;;5085811;28;20480;-67
2023/01/30 09:46:48;;;;;;;0.40;0.40;;;;;;;;;;5074182;28;20288;-67
2023/01/30 09:49:21;;;;;;;0.20;0.20;;;;;;;;;;5085614;28;20205;-65
2023/01/30 09:51:53;;;;;;;0.20;0.20;;;;;;;;;;5074260;28;20249;-66
2023/01/30 09:54:23;;;;;;;0.20;0.20;;;;;;;;;;5085719;28;20264;-65
2023/01/30 09:57:07;;;;;;;0.27;0.27;;;;;;;;;;5074123;28;20284;-66
2023/01/30 09:59:37;;;;;;;0.30;0.30;;;;;;;;;;5074951;28;20237;-66
2023/01/30 10:02:18;;;;;;;0.30;0.30;;;;;;;;;;5073927;28;20241;-65
2023/01/30 10:04:48;;;;;;;0.20;0.20;;;;;;;;;;5085697;28;20282;-67
2023/01/30 10:07:16;;;;;;;0.73;0.73;;;;;;;;;;5073826;28;20418;-66
2023/01/30 10:09:47;;;;;;;0.20;0.20;;;;;;;;;;5085480;28;20206;-65
2023/01/30 10:12:23;;;;;;;0.20;0.20;;;;;;;;;;5073569;28;20237;-65
2023/01/30 10:15:04;;;;;;;0.20;0.20;;;;;;;;;;5085487;28;20268;-66
2023/01/30 10:17:33;;;;;;;0.20;0.20;;;;;;;;;;5073678;28;20506;-66
2023/01/30 10:20:06;;;;;;;0.20;0.20;;;;;;;;;;5084684;28;20203;-67
2023/01/30 10:22:36;;;;;;;0.20;0.20;;;;;;;;;;5056853;28;20217;-66
2023/01/30 10:25:11;;;;;;;0.20;0.20;;;;;;;;;;5084914;28;20501;-67
2023/01/30 10:27:41;;;;;;;0.40;0.40;;;;;;;;;;5056511;28;20258;-66
2023/01/30 10:30:14;;;;;;;0.20;0.20;;;;;;;;;;5076695;28;20194;-68
2023/01/30 10:32:43;;;;;;;0.20;0.20;;;;;;;;;;5083410;28;20479;-68
2023/01/30 10:35:18;;;;;;;0.20;0.20;;;;;;;;;;5073818;28;20279;-68
2023/01/30 10:37:48;;;;;;;0.20;0.20;;;;;;;;;;5083660;28;20201;-68
2023/01/30 10:40:18;;;;;;;0.20;0.20;;;;;;;;;;5074216;28;20382;-68
2023/01/30 10:42:49;;;;;;;0.20;0.20;;;;;;;;;;5083372;28;20258;-67
2023/01/30 10:45:16;;;;;;;0.70;0.70;;;;;;;;;;5073722;28;20254;-68
2023/01/30 10:47:50;;;;;;;0.20;0.20;;;;;;;;;;5083563;28;20262;-68
2023/01/30 10:50:19;;;;;;;0.20;0.20;;;;;;;;;;5073777;28;20186;-68
2023/01/30 10:52:52;;;;;;;0.20;0.20;;;;;;;;;;5083503;28;20191;-71
2023/01/30 10:55:23;;;;;;;0.20;0.20;;;;;;;;;;5073498;28;20232;-70
2023/01/30 10:57:54;;;;;;;0.60;0.60;;;;;;;;;;5083200;28;20205;-69
2023/01/30 11:00:24;;;;;;;0.20;0.20;;;;;;;;;;5073570;28;20224;-70
2023/01/30 11:02:58;;;;;;;0.20;0.20;;;;;;;;;;5083296;28;20206;-70
2023/01/30 11:05:27;;;;;;;0.20;0.20;;;;;;;;;;5073563;28;20191;-70
2023/01/30 11:07:53;;;;;;;0.20;0.20;;;;;;;;;;5085377;28;20233;-70
2023/01/30 11:10:21;;;;;;;0.20;0.20;;;;;;;;;;5073661;28;20206;-69
2023/01/30 11:12:47;;;;;;;0.20;0.20;;;;;;;;;;5083111;28;20225;-70
2023/01/30 11:15:14;;;;;;;0.20;0.20;;;;;;;;;;5073383;28;20249;-70
2023/01/30 11:17:43;;;;;;;0.20;0.20;;;;;;;;;;5082843;28;20273;-69
2023/01/30 11:20:13;;;;;;;0.20;0.20;;;;;;;;;;5073928;28;20206;-69
2023/01/30 11:22:46;;;;;;;0.20;0.20;;;;;;;;;;5082871;28;20253;-70
2023/01/30 11:25:14;;;;;;;0.20;0.20;;;;;;;;;;5073470;28;20258;-70
2023/01/30 11:27:42;;;;;;;0.20;0.20;;;;;;;;;;5083144;28;20199;-70
2023/01/30 11:30:13;;;;;;;0.20;0.20;;;;;;;;;;5073374;28;20225;-69
2023/01/30 11:32:41;;;;;;;0.20;0.20;;;;;;;;;;5082275;28;20224;-69
2023/01/30 11:35:19;;;;;;;0.30;0.30;;;;;;;;;;5079537;28;20548;-70
2023/01/30 11:37:47;;;;;;;0.37;0.37;;;;;;;;;;5083708;28;20256;-69
2023/01/30 11:40:19;;;;;;;0.20;0.20;;;;;;;;;;5072799;28;20244;-69
2023/01/30 11:42:47;;;;;;;0.20;0.20;;;;;;;;;;5082711;28;20217;-68
2023/01/30 11:45:13;;;;;;;0.20;0.20;;;;;;;;;;5073241;28;20487;-69
2023/01/30 11:47:46;;;;;;;0.20;0.20;;;;;;;;;;5082585;28;20237;-70
2023/01/30 11:50:15;;;;;;;0.20;0.20;;;;;;;;;;5073071;28;20216;-69
2023/01/30 11:52:42;;;;;;;0.30;0.30;;;;;;;;;;5082278;28;20260;-70
2023/01/30 11:55:13;;;;;;;50.20;42.73;;;;;;;;;;5073016;28;20257;-70
2023/01/30 11:57:41;;;;;;;0.20;0.20;;;;;;;;;;5082541;28;20356;-70
2023/01/30 12:00:13;;;;;;;0.20;0.20;;;;;;;;;;5083142;28;20390;-71
2023/01/30 12:02:40;;;;;;;0.20;0.20;;;;;;;;;;5055150;28;20275;-68
2023/01/30 12:05:07;;;;;;;0.27;0.27;;;;;;;;;;5083586;28;20206;-70
2023/01/30 12:07:35;;;;;;;0.20;0.20;;;;;;;;;;5035042;28;20237;-70
2023/01/30 12:10:10;;;;;;;0.40;0.40;;;;;;;;;;5063355;28;20204;-70
2023/01/30 12:12:44;;;;;;;0.20;0.20;;;;;;;;;;5055105;28;20404;-70
2023/01/30 12:15:16;;;;;;;0.20;0.20;;;;;;;;;;5072626;28;20249;-70
2023/01/30 12:17:45;;;;;;;1.43;1.43;;;;;;;;;;5082304;28;20438;-70
2023/01/30 12:20:14;;;;;;;0.20;0.20;;;;;;;;;;5073011;28;20328;-69
2023/01/30 12:22:44;;;;;;;0.23;0.23;;;;;;;;;;5082332;28;20221;-69
2023/01/30 12:25:13;;;;;;;0.20;0.20;;;;;;;;;;5072674;28;20203;-69
2023/01/30 12:27:55;;;;;;;0.17;0.17;;;;;;;;;;5081877;28;20199;-69
2023/01/30 12:30:24;;;;;;;0.20;0.20;;;;;;;;;;5072502;28;20194;-70
2023/01/30 12:32:52;;;;;;;0.20;0.20;;;;;;;;;;5082082;28;20455;-69
2023/01/30 12:35:23;;;;;;;0.20;0.20;;;;;;;;;;5072314;28;20230;-70
2023/01/30 12:37:59;;;;;;;0.20;0.20;;;;;;;;;;5082055;28;20289;-71
2023/01/30 12:40:33;;;;;;;0.37;0.37;;;;;;;;;;5072575;28;20191;-70
2023/01/30 12:43:12;;;;;;;0.20;0.20;;;;;;;;;;5082319;28;20281;-69
2023/01/30 12:45:41;;;;;;;0.10;0.10;;;;;;;;;;5072031;28;20246;-69
2023/01/30 12:48:22;;;;;;;0.20;0.20;;;;;;;;;;5082043;28;20210;-69
2023/01/30 12:50:54;;;;;;;0.20;0.20;;;;;;;;;;5072087;28;20241;-69
2023/01/30 12:53:31;;;;;;;0.27;0.27;;;;;;;;;;5085133;28;20201;-69
2023/01/30 12:56:09;;;;;;;0.30;0.30;;;;;;;;;;5075574;28;20241;-66
2023/01/30 12:58:42;;;;;;;0.20;0.20;;;;;;;;;;5086234;28;20234;-65
2023/01/30 13:01:16;;;;;;;0.20;0.20;;;;;;;;;;5075507;28;20238;-65
2023/01/30 13:03:44;;;;;;;0.20;0.20;;;;;;;;;;5086032;28;20231;-65
2023/01/30 13:06:19;;;;;;;0.10;0.10;;;;;;;;;;5075325;28;20289;-64
2023/01/30 13:08:52;;;;;;;0.20;0.20;;;;;;;;;;5086134;28;20210;-65
2023/01/30 13:11:27;;;;;;;0.20;0.20;;;;;;;;;;5075418;28;20281;-68
2023/01/30 13:13:59;;;;;;;0.20;0.20;;;;;;;;;;5086124;28;20399;-67
2023/01/30 13:16:28;;;;;;;0.43;0.43;;;;;;;;;;5075332;28;20503;-66
2023/01/30 13:18:55;;;;;;;0.20;0.20;;;;;;;;;;5085941;28;20283;-66
2023/01/30 13:21:23;;;;;;;0.20;0.20;;;;;;;;;;5075069;28;20314;-67
2023/01/30 13:23:57;;;;;;;0.20;0.20;;;;;;;;;;5085809;28;20249;-67
2023/01/30 13:26:27;;;;;;;0.20;0.20;;;;;;;;;;5074953;28;20252;-67
2023/01/30 13:28:56;;;;;;;0.20;0.20;;;;;;;;;;5085370;28;20206;-66
2023/01/30 13:31:26;;;;;;;0.20;0.20;;;;;;;;;;5074689;28;20530;-67
2023/01/30 13:33:56;;;;;;;0.20;0.20;;;;;;;;;;5085843;28;20330;-67
2023/01/30 13:36:24;;;;;;;0.10;0.10;;;;;;;;;;5074681;28;20251;-67
2023/01/30 13:38:57;;;;;;;0.20;0.20;;;;;;;;;;5085300;28;20430;-67
2023/01/30 13:41:24;;;;;;;0.20;0.20;;;;;;;;;;5074428;28;20239;-67
2023/01/30 13:43:53;;;;;;;0.20;0.20;;;;;;;;;;5085543;28;20449;-66
2023/01/30 13:46:22;;;;;;;0.20;0.20;;;;;;;;;;5074684;28;20260;-67
2023/01/30 13:48:55;;;;;;;0.20;0.20;;;;;;;;;;5085283;28;20204;-68
2023/01/30 13:51:32;;;;;;;0.20;0.20;;;;;;;;;;5074503;28;20346;-67
2023/01/30 13:54:03;;;;;;;0.20;0.20;;;;;;;;;;5085078;28;20569;-67
2023/01/30 13:56:32;;;;;;;0.37;0.37;;;;;;;;;;5074158;28;20498;-67
2023/01/30 13:59:01;;;;;;;0.20;0.20;;;;;;;;;;5085278;28;20203;-68
2023/01/30 14:01:42;;;;;;;0.20;0.20;;;;;;;;;;5074260;28;20319;-68
2023/01/30 14:04:24;;;;;;;0.20;0.20;;;;;;;;;;5084606;28;20210;-68
2023/01/30 14:06:51;;;;;;;0.20;0.20;;;;;;;;;;5072874;28;20245;-68
2023/01/30 14:09:20;;;;;;;0.20;0.20;;;;;;;;;;5085287;28;20275;-68
2023/01/30 14:11:48;;;;;;;0.20;0.20;;;;;;;;;;5073944;28;20454;-68
2023/01/30 14:14:28;;;;;;;0.20;0.20;;;;;;;;;;5085234;28;20239;-69
2023/01/30 14:16:56;;;;;;;0.20;0.20;;;;;;;;;;5073341;28;20258;-68
2023/01/30 14:19:37;;;;;;;0.30;0.30;;;;;;;;;;5085171;28;20213;-69
2023/01/30 14:22:15;;;;;;;0.20;0.20;;;;;;;;;;5073517;28;20285;-67
2023/01/30 14:24:42;;;;;;;0.20;0.20;;;;;;;;;;5085289;28;20420;-67
2023/01/30 14:27:22;;;;;;;0.20;0.20;;;;;;;;;;5073183;28;20261;-67
2023/01/30 14:29:55;;;;;;;0.20;0.20;;;;;;;;;;5084996;28;20213;-68
2023/01/30 14:32:36;;;;;;;0.20;0.20;;;;;;;;;;5073021;28;20617;-68
2023/01/30 14:35:16;;;;;;;0.20;0.20;;;;;;;;;;5084297;28;20273;-66
2023/01/30 14:37:48;;;;;;;0.20;0.20;;;;;;;;;;5084407;28;20187;-67
2023/01/30 14:40:32;;;;;;;0.20;0.20;;;;;;;;;;5073944;28;20245;-66
2023/01/30 14:43:18;;;;;;;0.20;0.20;;;;;;;;;;5053723;28;20217;-66
2023/01/30 14:45:47;;;;;;;0.20;0.20;;;;;;;;;;5073507;28;20569;-65
2023/01/30 14:48:27;;;;;;;0.20;0.20;;;;;;;;;;5083917;28;20421;-65
2023/01/30 14:51:08;;;;;;;0.20;0.20;;;;;;;;;;5073611;28;20259;-66
2023/01/30 14:53:37;;;;;;;0.20;0.20;;;;;;;;;;5083842;28;20242;-64
2023/01/30 14:56:04;;;;;;;0.20;0.20;;;;;;;;;;5073127;28;20310;-66
2023/01/30 14:58:30;;;;;;;0.10;0.10;;;;;;;;;;5083757;28;20203;-66